Terminal Aerodrome Forecast
Issued by NWS

Home | Current Version | Previous Version | Graphics & Text | Print | Product List | Glossary On
Versions: 1 2 3 4 5 6 7 8 9 10 11 12 13 14 15 16 17 18
000
FTUS43 KMPX 260500
TAFRNH
TAF
KRNH 260533Z 2606/2706 12006KT P6SM OVC050
     FM261500 04005KT 6SM -SN BKN025 OVC040
     FM261700 36007KT 2SM -SN BR OVC015
     FM262200 33011KT 6SM -SN OVC018
     FM270100 32011KT P6SM BKN018=

USA.gov is the U.S. government's official web portal to all federal, state and local government web resources and services.